Grand Ruby — 3EIU3 — position and weather

sailwx.info

Track history (hours):
 
Tides and Currents Weather Stations Pressure Air Temp Water Temp Dewpoint Dewpoint Depression Visibility Wind Speed Wind Dir Waves Ship Positions

Grand Ruby

Last reported at 2016-Aug-14 08:12 UTC. Time now 2016-Aug-24 19:42 UTC.
Position N 02°04' E 102°09'.
Warning: this ship's position is 10 days out of date.

Length 199 m; draft 9.1 m.

Type: Cargo ship. MMSI: 372399000.

Date/timePositionNaut miles runAvg speedWind from/ knotsBaromVisibWave heightAir tempDewpointWater temp
2016-Aug-14 08:12N 02°04' E 102°09'1015.9
2016-Aug-14 07:33N 01°57' E 102°17'1616.0
2016-Aug-14 06:33N 01°51' E 102°32'7815.6
2016-Aug-14 01:32N 01°12' E 103°40'7 7.2
2016-Aug-14 00:33N 01°17' E 103°45'0 0.3
2016-Aug-13 23:18N 01°17' E 103°45'0 0.0
2016-Aug-13 22:24N 01°17' E 103°45'0 0.0
2016-Aug-13 21:33N 01°17' E 103°45'0 0.0
2016-Aug-13 20:30N 01°17' E 103°45'0 0.0
2016-Aug-13 19:30N 01°17' E 103°45'0 0.0
2016-Aug-13 18:30N 01°17' E 103°45'0 0.0
2016-Aug-13 17:24N 01°17' E 103°45'0 0.0
2016-Aug-13 16:33N 01°17' E 103°45'0 0.0
2016-Aug-13 15:24N 01°17' E 103°45'0 0.0
2016-Aug-13 14:30N 01°17' E 103°45'0 0.0
2016-Aug-13 13:30N 01°17' E 103°45'0 0.0
2016-Aug-13 12:24N 01°17' E 103°45'0 0.0
2016-Aug-13 11:15N 01°17' E 103°45'0 0.0
2016-Aug-13 10:30N 01°17' E 103°45'0 0.0
2016-Aug-13 09:27N 01°17' E 103°45'0 0.0
2016-Aug-13 08:13N 01°17' E 103°45'1 1.4
2016-Aug-13 07:33N 01°17' E 103°44'4 3.9
2016-Aug-13 06:33N 01°14' E 103°47'8 8.4
2016-Aug-13 05:33N 01°14' E 103°55'5 5.3
2016-Aug-13 04:33N 01°16' E 104°01'  
2016-Aug-05 11:13N 22°05' E 113°49'710.4
2016-Aug-05 10:33N 22°12' E 113°47'1414.3
2016-Aug-05 09:33N 22°26' E 113°45'2512.6
2016-Aug-05 07:32N 22°50' E 113°35'1010.4
2016-Aug-05 06:33N 22°59' E 113°32'1 0.4
2016-Aug-05 03:12N 23°01' E 113°32'0 0.0
2016-Aug-05 02:24N 23°01' E 113°32'0 0.0
2016-Aug-05 01:30N 23°01' E 113°32'0 0.0
2016-Aug-05 00:31N 23°01' E 113°32'2 2.4
2016-Aug-04 23:33N 22°59' E 113°32'9 8.9
2016-Aug-04 22:33N 22°50' E 113°35'2411.8
2016-Aug-04 20:29N 22°27' E 113°45'1313.9
2016-Aug-04 19:33N 22°15' E 113°48'7 6.5
2016-Aug-04 18:30N 22°08' E 113°48'0 0.0
2016-Aug-04 17:30N 22°08' E 113°48'0 0.0
2016-Aug-04 16:30N 22°08' E 113°48'0 0.0
2016-Aug-04 15:30N 22°08' E 113°48'0 0.0
2016-Aug-04 14:30N 22°08' E 113°48'0 0.0
2016-Aug-04 13:24N 22°08' E 113°48'0 0.1
2016-Aug-04 12:30N 22°08' E 113°48'0 0.1
2016-Aug-04 11:30N 22°08' E 113°48'0 0.0
2016-Aug-04 10:30N 22°08' E 113°48'0 0.1
2016-Aug-04 09:30N 22°08' E 113°48'0 0.0
2016-Aug-04 08:30N 22°08' E 113°48'  
Track history (hours):
 
Tides and Currents Weather Stations Pressure Air Temp Water Temp Dewpoint Dewpoint Depression Visibility Wind Speed Wind Dir Waves Ship Positions

Grand Ruby

Last reported at 2016-Aug-14 08:12 UTC. Time now 2016-Aug-24 19:42 UTC.
Position N 02°04' E 102°09'.
Warning: this ship's position is 10 days out of date.

Length 199 m; draft 9.1 m.

Type: Cargo ship. MMSI: 372399000.

Date/timePositionNaut miles runAvg speedWind from/ knotsBaromVisibWave heightAir tempDewpointWater temp
2016-Aug-14 08:12N 02°04' E 102°09'1015.9
2016-Aug-14 07:33N 01°57' E 102°17'1616.0
2016-Aug-14 06:33N 01°51' E 102°32'7815.6
2016-Aug-14 01:32N 01°12' E 103°40'7 7.2
2016-Aug-14 00:33N 01°17' E 103°45'0 0.3
2016-Aug-13 23:18N 01°17' E 103°45'0 0.0
2016-Aug-13 22:24N 01°17' E 103°45'0 0.0
2016-Aug-13 21:33N 01°17' E 103°45'0 0.0
2016-Aug-13 20:30N 01°17' E 103°45'0 0.0
2016-Aug-13 19:30N 01°17' E 103°45'0 0.0
2016-Aug-13 18:30N 01°17' E 103°45'0 0.0
2016-Aug-13 17:24N 01°17' E 103°45'0 0.0
2016-Aug-13 16:33N 01°17' E 103°45'0 0.0
2016-Aug-13 15:24N 01°17' E 103°45'0 0.0
2016-Aug-13 14:30N 01°17' E 103°45'0 0.0
2016-Aug-13 13:30N 01°17' E 103°45'0 0.0
2016-Aug-13 12:24N 01°17' E 103°45'0 0.0
2016-Aug-13 11:15N 01°17' E 103°45'0 0.0
2016-Aug-13 10:30N 01°17' E 103°45'0 0.0
2016-Aug-13 09:27N 01°17' E 103°45'0 0.0
2016-Aug-13 08:13N 01°17' E 103°45'1 1.4
2016-Aug-13 07:33N 01°17' E 103°44'4 3.9
2016-Aug-13 06:33N 01°14' E 103°47'8 8.4
2016-Aug-13 05:33N 01°14' E 103°55'5 5.3
2016-Aug-13 04:33N 01°16' E 104°01'  
2016-Aug-05 11:13N 22°05' E 113°49'710.4
2016-Aug-05 10:33N 22°12' E 113°47'1414.3
2016-Aug-05 09:33N 22°26' E 113°45'2512.6
2016-Aug-05 07:32N 22°50' E 113°35'1010.4
2016-Aug-05 06:33N 22°59' E 113°32'1 0.4
2016-Aug-05 03:12N 23°01' E 113°32'0 0.0
2016-Aug-05 02:24N 23°01' E 113°32'0 0.0
2016-Aug-05 01:30N 23°01' E 113°32'0 0.0
2016-Aug-05 00:31N 23°01' E 113°32'2 2.4
2016-Aug-04 23:33N 22°59' E 113°32'9 8.9
2016-Aug-04 22:33N 22°50' E 113°35'2411.8
2016-Aug-04 20:29N 22°27' E 113°45'1313.9
2016-Aug-04 19:33N 22°15' E 113°48'7 6.5
2016-Aug-04 18:30N 22°08' E 113°48'0 0.0
2016-Aug-04 17:30N 22°08' E 113°48'0 0.0
2016-Aug-04 16:30N 22°08' E 113°48'0 0.0
2016-Aug-04 15:30N 22°08' E 113°48'0 0.0
2016-Aug-04 14:30N 22°08' E 113°48'0 0.0
2016-Aug-04 13:24N 22°08' E 113°48'0 0.1
2016-Aug-04 12:30N 22°08' E 113°48'0 0.1
2016-Aug-04 11:30N 22°08' E 113°48'0 0.0
2016-Aug-04 10:30N 22°08' E 113°48'0 0.1
2016-Aug-04 09:30N 22°08' E 113°48'0 0.0
2016-Aug-04 08:30N 22°08' E 113°48'  

Dump ship's entire track history